NOZ2274 ESSV-EPGD
Flight info
| Callsign | NOZ2274 |
|---|---|
| Flight time | N/A |
| Altitude | 34000 |
| Route | KINTI DCT PENOR DCT MOTAD DCT DOMAG DCT OGDAV |
| Aircraft | B738/M-SDE2E3FGHIRWXY/LB1 |
Departure
| Time | 2026-04-24 17:04 |
|---|---|
| Airport | Visby Airport (ESSV) |
Arrival
| Time | N/A |
|---|---|
| Airport | Gdańsk Lech Wałęsa Airport (EPGD) |
| Time | Latitude | Longitude | Altitude | Speed | Heading |
|---|---|---|---|---|---|
| 2026-04-24 16:46 | 57.66014 | 18.33927 | 158 ft | 0 kts | 336° |
| 2026-04-24 16:58 | 57.66015 | 18.33927 | 158 ft | 0 kts | 339° |
| 2026-04-24 16:59 | 57.66019 | 18.33936 | 158 ft | 2 kts | 57° |
| 2026-04-24 16:59 | 57.66026 | 18.34002 | 158 ft | 9 kts | 89° |
| 2026-04-24 16:59 | 57.65967 | 18.34350 | 156 ft | 17 kts | 83° |
| 2026-04-24 17:00 | 57.66064 | 18.34465 | 156 ft | 20 kts | 21° |
| 2026-04-24 17:00 | 57.66289 | 18.34628 | 156 ft | 22 kts | 21° |
| 2026-04-24 17:00 | 57.66454 | 18.34744 | 155 ft | 28 kts | 20° |
| 2026-04-24 17:01 | 57.66872 | 18.35044 | 156 ft | 34 kts | 21° |
| 2026-04-24 17:01 | 57.67028 | 18.35145 | 157 ft | 14 kts | 12° |
| 2026-04-24 17:02 | 57.67103 | 18.35203 | 158 ft | 3 kts | 127° |
| 2026-04-24 17:02 | 57.67092 | 18.35201 | 158 ft | 0 kts | 197° |
| 2026-04-24 17:03 | 57.67048 | 18.35172 | 158 ft | 32 kts | 200° |
| 2026-04-24 17:04 | 57.66583 | 18.34839 | 153 ft | 108 kts | 201° |
| 2026-04-24 17:04 | 57.64691 | 18.33539 | 1032 ft | 153 kts | 193° |
| 2026-04-24 17:04 | 57.63559 | 18.33453 | 1596 ft | 173 kts | 179° |
| 2026-04-24 17:05 | 57.62264 | 18.33318 | 2046 ft | 202 kts | 187° |
| 2026-04-24 17:05 | 57.60784 | 18.32945 | 2416 ft | 227 kts | 189° |
| 2026-04-24 17:05 | 57.57552 | 18.31109 | 3691 ft | 245 kts | 225° |
| 2026-04-24 17:06 | 57.56696 | 18.28548 | 4768 ft | 230 kts | 257° |
| 2026-04-24 17:06 | 57.55863 | 18.22645 | 6356 ft | 248 kts | 241° |
| 2026-04-24 17:06 | 57.54542 | 18.20404 | 6861 ft | 273 kts | 206° |
| 2026-04-24 17:07 | 57.52706 | 18.19257 | 7570 ft | 283 kts | 200° |
| 2026-04-24 17:07 | 57.50806 | 18.18194 | 8403 ft | 287 kts | 199° |
| 2026-04-24 17:07 | 57.46927 | 18.16050 | 10095 ft | 295 kts | 200° |
| 2026-04-24 17:08 | 57.42716 | 18.13690 | 10692 ft | 339 kts | 200° |
| 2026-04-24 17:08 | 57.40430 | 18.12400 | 11276 ft | 348 kts | 200° |
| 2026-04-24 17:08 | 57.38099 | 18.11084 | 12060 ft | 351 kts | 200° |
| 2026-04-24 17:09 | 57.33381 | 18.08412 | 13716 ft | 358 kts | 200° |
| 2026-04-24 17:09 | 57.28570 | 18.05679 | 15287 ft | 364 kts | 200° |
| 2026-04-24 17:10 | 57.26132 | 18.04294 | 16080 ft | 368 kts | 200° |
| 2026-04-24 17:10 | 57.18685 | 18.00071 | 18380 ft | 378 kts | 200° |
| 2026-04-24 17:11 | 57.11118 | 17.95789 | 20512 ft | 383 kts | 202° |
| 2026-04-24 17:12 | 56.98187 | 17.88512 | 23686 ft | 396 kts | 202° |